Aeroporto :
LOGIN :

Iscrizione | Disclaimer

   EN    FR    IT 

 










Sommario :    VFR   VFR Marginale   IFR   IFR Intensivo   IFR Molto Intensivo
Visibilità : 
Base nubi : 
>= 8 km
>= 3000ft
5 / 8 km
1000 / 3000 ft
1500m / 5 km
500 / 1000 ft
800 / 1500m
200 / 500 ft
< 800m
< 200 ft
Simboli :   Temporali  Nebbia  Neve Forte  Precipitazioni Forti  Vento > 20 kt
SIGMETs :   Varie  Temporali  Ghiacco  Turbolenza  Onda orograficha  Ceneri Vulcaniche






- Altitudine del aeroporto : 584 ft


LFPV - Villacoublay Vélizy

ULTIMO METAR :
  • 261500Z AUTO 23011KT 190V260 9999 BKN049 OVC096 20/10 Q1015 TEMPO BKN040TCU

METARs OBSOLETI :
  • 261430Z AUTO 25013KT 220V280 9999 FEW048/// BKN060/// BKN094/// ///CB 20/11 Q1015 NOSIG
  • 261400Z AUTO 22012KT 190V250 9999 BKN045/// BKN054/// ///CB 20/10 Q1015 TEMPO 4000 -RA BECMG FEW015 SCT020 BKN050
  • 261330Z AUTO 28009KT 9999 BKN047/// BKN060/// OVC076/// ///TCU 19/11 Q1015 TEMPO 4000 -RA BECMG FEW015 SCT020 BKN050
  • 261300Z AUTO 23011KT 190V280 9999 BKN049 BKN056 BKN066 21/10 Q1015 TEMPO 4000 -RA
  • 261230Z AUTO 24011KT 190V270 9999 FEW046 SCT066 21/11 Q1015 TEMPO 4000 -RA
  • 261200Z AUTO 24012KT 200V270 9999 ///TCU 21/11 Q1015 BECMG FEW015 SCT020 BKN050
  • 261130Z AUTO 24010KT 180V270 9999 SCT045 SCT052 20/10 Q1015 NOSIG
  • 261100Z AUTO 23009KT 190V270 9999 FEW047 20/12 Q1015 NOSIG
  • 261030Z AUTO 23008KT 190V260 9999 SCT032 SCT042 20/12 Q1015 NOSIG

TAF TAF LFPV
Valido dal 26 a 15 ore il 27 a 15 ore UTC


261400Z 2615/2715 22008KT 9999 BKN040 BKN060 TX21/2615Z TN10/2705Z
TEMPO 2615/2620 BKN040TCU



MetMap, La meteo Aeronautica in un colpo d'occhio ! - Copyright ORBIFLY Dicembre 2007 - Disclaimer

ORBIFLY MET'MAP TEAM :

Programmazione e sviluppo : Alexandra Zaïnal
Concezione : Baudouin d'Aumeries
Supporto tecnico e logistico : Manuel Goepfert
Aiuto : Marc-Olivier Méhu
Aiuto per la traduzione : Arnaldo La Scala




FONTI E CREDITI :

   NOAA